Keg River, Canada
Current Conditions -  °F | °C
As of 10:00 PM on Saturday 25 Oct 2014 (Local Time) from CYOJ Reporting Station
Scattered Clouds Scattered Clouds  
Wind Chill: 27°   Ceiling: Unl
Heat Index: 27°   Visibility: 15mi
Dew Point: 27°   Wind: 0mph
Humidity: 100%   Direction: NA
Pressure: 29.81"   Gusts: NA
Location:  57.8°N, 117.87°W
Report Text: CYOJ 260400Z 00000KT 15SM SCT160 M03/M03 A2981 RMK AC3 LAST STFD OBS/NEXT 261300 UTC SLP119
Loading
Personal Weather Stations






























Interactive Weather Map
Tropical Storm Tracking
New forecast layout! Learn more

10-Day Weather Forecast

Advertisements
Track Severe Weather on mobile